createdAt,value
2022-12-15T00:02:37.505Z,30.23
2022-12-15T00:05:23.458Z,32.78
2022-12-15T00:08:09.458Z,37.60
2022-12-15T00:10:55.225Z,34.80
2022-12-15T00:13:41.247Z,32.88
2022-12-15T00:16:27.416Z,32.42
2022-12-15T00:19:14.786Z,35.17
2022-12-15T00:22:00.643Z,36.08
2022-12-15T00:24:49.932Z,30.83
2022-12-15T00:27:35.980Z,29.42
2022-12-15T00:30:21.792Z,33.45
2022-12-15T00:33:07.878Z,33.95
2022-12-15T00:35:55.082Z,35.95
2022-12-15T00:38:43.156Z,39.42
2022-12-15T00:41:12.022Z,27.80
2022-12-15T00:43:40.215Z,34.85
2022-12-15T00:46:26.157Z,34.55
2022-12-15T00:48:54.390Z,34.30
2022-12-15T00:51:41.774Z,32.83
2022-12-15T00:54:27.829Z,36.97
2022-12-15T00:57:13.732Z,35.67
2022-12-15T00:59:59.722Z,35.45
2022-12-15T01:02:45.840Z,32.42
2022-12-15T01:05:32.011Z,29.70
2022-12-15T01:08:19.654Z,32.67
2022-12-15T01:11:05.372Z,31.35
2022-12-15T01:13:51.350Z,34.10
2022-12-15T01:16:37.504Z,30.65
2022-12-15T01:19:23.172Z,33.03
2022-12-15T01:21:51.592Z,34.55
2022-12-15T01:24:21.104Z,32.15
2022-12-15T01:26:49.293Z,32.20
2022-12-15T01:29:17.541Z,32.28
2022-12-15T01:31:46.133Z,31.88
2022-12-15T01:34:19.889Z,32.55
2022-12-15T01:36:48.120Z,35.83
2022-12-15T01:39:16.280Z,32.70
2022-12-15T01:41:44.824Z,34.78
2022-12-15T01:44:19.863Z,36.08
2022-12-15T01:46:48.755Z,35.63
2022-12-15T01:49:18.116Z,35.63
2022-12-15T01:51:48.859Z,36.38
2022-12-15T01:54:18.593Z,35.50
2022-12-15T01:56:49.550Z,39.35
2022-12-15T01:59:19.519Z,32.63
2022-12-15T02:01:49.916Z,34.22
2022-12-15T02:04:19.665Z,34.30
2022-12-15T02:06:47.850Z,33.53
2022-12-15T02:09:16.582Z,32.80
2022-12-15T02:11:46.603Z,34.33
2022-12-15T02:14:19.451Z,37.45
2022-12-15T02:16:56.161Z,40.00
2022-12-15T02:19:36.275Z,37.85
2022-12-15T02:22:12.165Z,43.88
2022-12-15T02:24:55.781Z,38.25
2022-12-15T02:27:31.767Z,32.15
2022-12-15T02:30:18.993Z,35.22
2022-12-15T02:32:50.776Z,38.97
2022-12-15T02:35:22.206Z,31.38
2022-12-15T02:37:50.657Z,34.53
2022-12-15T02:40:18.892Z,34.92
2022-12-15T02:42:48.838Z,37.92
2022-12-15T02:45:21.164Z,35.83
2022-12-15T02:47:54.320Z,36.58
2022-12-15T02:50:29.624Z,38.38
2022-12-15T02:53:04.509Z,39.58
2022-12-15T02:55:37.342Z,33.97
2022-12-15T02:58:08.349Z,39.63
2022-12-15T03:00:39.610Z,39.65
2022-12-15T03:03:08.257Z,33.75
2022-12-15T03:05:36.607Z,34.97
2022-12-15T03:08:04.873Z,35.70
2022-12-15T03:10:33.091Z,36.55
2022-12-15T03:13:01.238Z,35.00
2022-12-15T03:15:35.121Z,37.22
2022-12-15T03:18:05.284Z,34.25
2022-12-15T03:20:33.436Z,37.03
2022-12-15T03:23:02.299Z,39.55
2022-12-15T03:25:30.732Z,35.15
2022-12-15T03:27:58.914Z,36.63
2022-12-15T03:30:27.055Z,35.38
2022-12-15T03:32:55.265Z,37.38
2022-12-15T03:35:24.843Z,32.00
2022-12-15T03:37:53.042Z,34.67
2022-12-15T03:40:21.205Z,36.55
2022-12-15T03:42:49.345Z,34.40
2022-12-15T03:45:18.038Z,32.38
2022-12-15T03:47:47.062Z,32.65
2022-12-15T03:50:16.974Z,32.42
2022-12-15T03:52:46.481Z,33.45
2022-12-15T03:55:14.630Z,35.20
2022-12-15T03:57:43.115Z,33.60
2022-12-15T04:00:14.817Z,32.67
2022-12-15T04:02:43.111Z,28.33
2022-12-15T04:05:15.352Z,35.63
2022-12-15T04:07:43.547Z,35.70
2022-12-15T04:10:13.563Z,35.47
2022-12-15T04:12:41.861Z,33.75
2022-12-15T04:15:11.865Z,33.63
2022-12-15T04:17:40.401Z,37.35
2022-12-15T04:20:11.160Z,38.80
2022-12-15T04:22:40.270Z,34.10
2022-12-15T04:25:27.260Z,33.85
2022-12-15T04:28:14.391Z,30.15
2022-12-15T04:31:02.263Z,35.00
2022-12-15T04:33:48.263Z,35.00
2022-12-15T04:36:34.265Z,36.13
2022-12-15T04:39:20.279Z,32.80
2022-12-15T04:42:06.251Z,31.23
2022-12-15T04:44:53.902Z,31.27
2022-12-15T04:47:39.936Z,31.70
2022-12-15T04:50:26.246Z,29.67
2022-12-15T04:53:12.155Z,30.65
2022-12-15T04:55:58.288Z,34.28
2022-12-15T04:58:44.359Z,33.33
2022-12-15T05:01:31.621Z,34.20
2022-12-15T05:04:17.532Z,31.13
2022-12-15T05:07:03.507Z,33.63
2022-12-15T05:09:49.338Z,37.78
2022-12-15T05:12:35.191Z,33.78
2022-12-15T05:15:21.167Z,35.97
2022-12-15T05:18:08.573Z,33.83
2022-12-15T05:20:54.435Z,32.67
2022-12-15T05:23:40.466Z,35.25
2022-12-15T05:26:26.556Z,32.50
2022-12-15T05:29:12.678Z,35.00
2022-12-15T05:31:51.851Z,33.50
2022-12-15T05:34:23.068Z,35.80
2022-12-15T05:36:51.286Z,37.08
2022-12-15T05:39:19.722Z,36.70
2022-12-15T05:41:47.981Z,31.88
2022-12-15T05:44:17.391Z,35.55
2022-12-15T05:46:45.896Z,33.53
2022-12-15T05:49:15.038Z,31.65
2022-12-15T05:51:45.459Z,35.42
2022-12-15T05:54:16.314Z,30.77
2022-12-15T05:56:44.574Z,30.55
2022-12-15T05:59:12.725Z,34.75
2022-12-15T06:01:40.991Z,33.40
2022-12-15T06:04:09.273Z,32.20
2022-12-15T06:06:37.462Z,29.88
2022-12-15T06:09:07.410Z,36.67
2022-12-15T06:11:35.585Z,39.22
2022-12-15T06:14:03.759Z,34.78
2022-12-15T06:16:32.027Z,32.33
2022-12-15T06:19:00.980Z,31.42
2022-12-15T06:21:30.623Z,34.33
2022-12-15T06:23:59.026Z,29.23
2022-12-15T06:26:29.539Z,30.95
2022-12-15T06:28:58.493Z,28.77
2022-12-15T06:31:27.455Z,35.97
2022-12-15T06:34:01.724Z,31.65
2022-12-15T06:36:31.555Z,31.70
2022-12-15T06:39:00.468Z,34.63
2022-12-15T06:41:30.955Z,30.88
2022-12-15T06:43:59.528Z,29.88
2022-12-15T06:46:28.640Z,29.02
2022-12-15T06:48:57.198Z,26.02
2022-12-15T06:51:25.426Z,28.60
2022-12-15T06:53:54.280Z,23.50
2022-12-15T06:56:28.898Z,28.30
2022-12-15T06:59:02.263Z,28.80
2022-12-15T07:01:30.750Z,22.67
2022-12-15T07:04:01.288Z,23.92
2022-12-15T07:06:30.209Z,25.73
2022-12-15T07:08:58.357Z,19.83
2022-12-15T07:11:26.518Z,22.23
2022-12-15T07:13:55.415Z,21.40
2022-12-15T07:16:25.671Z,23.17
2022-12-15T07:18:53.926Z,18.38
2022-12-15T07:21:22.083Z,20.15
2022-12-15T07:23:55.721Z,19.40
2022-12-15T07:26:25.129Z,17.73
2022-12-15T07:28:54.379Z,20.60
2022-12-15T07:31:23.699Z,21.30
2022-12-15T07:33:54.480Z,20.23
2022-12-15T07:36:22.844Z,20.00
2022-12-15T07:38:51.852Z,22.58
2022-12-15T07:41:21.082Z,21.02
2022-12-15T07:43:49.345Z,24.27
2022-12-15T07:46:17.843Z,17.27
2022-12-15T07:48:50.651Z,22.00
2022-12-15T07:51:21.436Z,17.40
2022-12-15T07:53:50.894Z,17.02
2022-12-15T07:56:19.699Z,18.05
2022-12-15T07:58:48.368Z,19.00
2022-12-15T08:01:17.344Z,19.30
2022-12-15T08:03:46.046Z,17.95
2022-12-15T08:06:15.239Z,21.40
2022-12-15T08:08:50.816Z,19.33
2022-12-15T08:11:20.026Z,19.63
2022-12-15T08:14:06.731Z,20.67
2022-12-15T08:16:36.616Z,19.48
2022-12-15T08:19:05.762Z,20.53
2022-12-15T08:21:34.381Z,20.85
2022-12-15T08:24:04.127Z,19.90
2022-12-15T08:26:32.300Z,19.20
2022-12-15T08:29:40.519Z,16.70
2022-12-15T08:31:52.939Z,17.37
2022-12-15T08:34:21.282Z,19.43
2022-12-15T08:36:49.459Z,16.63
2022-12-15T08:39:18.998Z,23.07
2022-12-15T08:41:47.240Z,18.67
2022-12-15T08:44:16.918Z,20.10
2022-12-15T08:46:45.606Z,17.80
2022-12-15T08:49:18.081Z,18.27
2022-12-15T08:51:50.621Z,17.07
2022-12-15T08:54:20.537Z,16.00
2022-12-15T08:56:49.115Z,16.37
2022-12-15T08:59:17.471Z,15.90
2022-12-15T09:01:45.854Z,17.57
2022-12-15T09:04:14.236Z,21.70
2022-12-15T09:06:42.504Z,20.10
2022-12-15T09:09:13.370Z,19.13
2022-12-15T09:11:42.902Z,20.40
2022-12-15T09:14:11.090Z,19.53
2022-12-15T09:16:39.317Z,17.93
2022-12-15T09:19:08.178Z,15.67
2022-12-15T09:21:36.362Z,19.57
2022-12-15T09:24:05.128Z,16.47
2022-12-15T09:26:34.889Z,21.03
2022-12-15T09:29:04.883Z,16.80
2022-12-15T09:31:33.929Z,17.10
2022-12-15T09:34:02.524Z,19.17
2022-12-15T09:36:32.428Z,20.27
2022-12-15T09:39:01.769Z,19.73
2022-12-15T09:41:31.201Z,23.20
2022-12-15T09:44:04.663Z,18.93
2022-12-15T09:46:40.425Z,18.67
2022-12-15T09:49:13.150Z,24.67
2022-12-15T09:51:43.219Z,23.00
2022-12-15T09:54:12.262Z,20.23
2022-12-15T09:56:42.798Z,19.83
2022-12-15T09:59:19.094Z,18.60
2022-12-15T10:01:52.508Z,17.67
2022-12-15T10:04:27.301Z,19.00
2022-12-15T10:06:56.811Z,22.00
2022-12-15T10:09:27.614Z,17.27
2022-12-15T10:11:59.209Z,24.60
2022-12-15T10:14:29.914Z,21.70
2022-12-15T10:17:04.354Z,21.20
2022-12-15T10:19:35.688Z,19.33
2022-12-15T10:22:03.984Z,18.83
2022-12-15T10:27:28.356Z,17.70
2022-12-15T10:30:00.111Z,21.20
2022-12-15T10:32:36.729Z,23.17
2022-12-15T10:35:09.907Z,19.90
2022-12-15T10:37:38.064Z,18.63
2022-12-15T10:40:06.670Z,19.50
2022-12-15T10:42:46.274Z,19.90
2022-12-15T10:45:35.523Z,22.93
2022-12-15T10:48:06.715Z,22.63
2022-12-15T10:50:35.458Z,25.03
2022-12-15T10:53:08.468Z,20.63
2022-12-15T10:55:38.841Z,24.80
2022-12-15T10:58:16.095Z,32.87
2022-12-15T11:00:44.311Z,24.77
2022-12-15T11:03:25.972Z,25.63
2022-12-15T11:05:54.737Z,19.80
2022-12-15T11:08:23.674Z,24.50
2022-12-15T11:11:11.138Z,20.50
2022-12-15T11:13:39.710Z,16.97
2022-12-15T11:16:17.744Z,25.40
2022-12-15T11:18:49.759Z,22.17
2022-12-15T11:21:21.849Z,20.47
2022-12-15T11:23:53.760Z,19.27
2022-12-15T11:26:31.628Z,14.17
2022-12-15T11:29:01.281Z,15.47
2022-12-15T11:31:33.843Z,15.90
2022-12-15T11:34:03.362Z,14.53
2022-12-15T11:36:41.004Z,14.80
2022-12-15T11:39:16.003Z,12.83
2022-12-15T11:41:48.127Z,15.23
2022-12-15T11:44:24.840Z,15.43
2022-12-15T11:46:55.844Z,12.40
2022-12-15T11:49:40.928Z,12.70
2022-12-15T11:52:14.398Z,15.07
2022-12-15T11:54:46.147Z,12.87
2022-12-15T11:57:24.754Z,17.50
2022-12-15T12:00:01.016Z,14.17
2022-12-15T12:02:36.731Z,14.33
2022-12-15T12:05:21.156Z,11.83
2022-12-15T12:07:51.075Z,13.23
2022-12-15T12:10:25.623Z,10.33
2022-12-15T12:12:56.826Z,11.03
2022-12-15T12:15:28.744Z,16.50
2022-12-15T12:17:59.751Z,11.23
2022-12-15T12:20:31.493Z,9.90
2022-12-15T12:23:03.351Z,11.13
2022-12-15T12:25:32.821Z,10.23
2022-12-15T12:28:03.708Z,9.33
2022-12-15T12:30:35.504Z,13.93
2022-12-15T12:33:08.096Z,10.63
2022-12-15T12:35:41.019Z,11.30
2022-12-15T12:38:10.994Z,12.50
2022-12-15T12:40:47.811Z,11.33
2022-12-15T12:43:24.773Z,13.40
2022-12-15T12:45:55.736Z,12.03
2022-12-15T12:48:27.381Z,8.97
2022-12-15T12:51:11.022Z,11.60
2022-12-15T12:53:39.182Z,11.47
2022-12-15T12:56:07.592Z,16.33
2022-12-15T12:58:39.590Z,14.77
2022-12-15T13:01:17.654Z,13.13
2022-12-15T13:03:46.287Z,10.30
2022-12-15T13:06:32.057Z,16.10
2022-12-15T13:09:21.519Z,15.73
2022-12-15T13:11:57.591Z,11.77
2022-12-15T13:14:46.557Z,10.30
2022-12-15T13:17:27.467Z,12.03
2022-12-15T13:20:23.509Z,12.10
2022-12-15T13:22:52.052Z,15.00
2022-12-15T13:25:29.694Z,14.67
2022-12-15T13:28:00.563Z,14.90
2022-12-15T13:30:28.825Z,12.30
2022-12-15T13:33:14.945Z,11.00
2022-12-15T13:35:44.115Z,12.53
2022-12-15T13:38:18.184Z,12.63
2022-12-15T13:40:54.925Z,16.83
2022-12-15T13:43:39.530Z,15.47
2022-12-15T13:46:13.317Z,11.23
2022-12-15T13:48:42.357Z,11.50
2022-12-15T13:51:21.320Z,10.60
2022-12-15T13:53:51.820Z,9.50
2022-12-15T13:56:37.736Z,11.20
2022-12-15T13:59:08.801Z,13.87
2022-12-15T14:01:37.213Z,15.87
2022-12-15T14:04:07.019Z,10.17
2022-12-15T14:06:39.967Z,8.10
2022-12-15T14:09:08.965Z,9.43
2022-12-15T14:14:29.667Z,10.50
2022-12-15T14:16:59.981Z,10.03
2022-12-15T14:19:32.083Z,11.47
2022-12-15T14:22:03.123Z,13.90
2022-12-15T14:24:40.484Z,11.20
2022-12-15T14:27:09.188Z,17.37
2022-12-15T14:29:38.689Z,12.90
2022-12-15T14:32:07.303Z,14.23
2022-12-15T14:34:38.756Z,13.93
2022-12-15T14:37:09.393Z,13.00
2022-12-15T14:39:41.879Z,14.87
2022-12-15T14:42:16.673Z,16.47
2022-12-15T14:44:50.732Z,16.80
2022-12-15T14:47:21.630Z,11.93
2022-12-15T14:49:49.986Z,14.60
2022-12-15T14:52:25.761Z,21.23
2022-12-15T14:54:57.476Z,17.53
2022-12-15T14:57:27.082Z,21.83
2022-12-15T14:59:56.767Z,19.93
2022-12-15T15:02:27.037Z,22.57
2022-12-15T15:05:02.387Z,24.17
2022-12-15T15:07:31.636Z,26.20
2022-12-15T15:10:00.299Z,23.57
2022-12-15T15:12:35.977Z,21.83
2022-12-15T15:15:06.849Z,26.90
2022-12-15T15:17:37.487Z,22.67
2022-12-15T15:20:07.296Z,28.07
2022-12-15T15:22:37.289Z,24.27
2022-12-15T15:25:20.334Z,23.03
2022-12-15T15:27:48.529Z,25.00
2022-12-15T15:30:20.032Z,22.70
2022-12-15T15:32:55.630Z,29.33
2022-12-15T15:35:24.577Z,21.43
2022-12-15T15:37:53.343Z,21.40
2022-12-15T15:40:21.562Z,22.90
2022-12-15T15:42:49.926Z,25.33
2022-12-15T15:45:19.453Z,24.27
2022-12-15T15:47:49.834Z,24.13
2022-12-15T15:50:21.775Z,21.67
2022-12-15T15:52:50.045Z,22.67
2022-12-15T15:55:21.283Z,21.30
2022-12-15T15:57:49.485Z,22.63
2022-12-15T16:00:21.394Z,23.90
2022-12-15T16:02:50.015Z,22.23
2022-12-15T16:05:18.591Z,22.17
2022-12-15T16:07:47.489Z,28.87
2022-12-15T16:10:16.299Z,23.33
2022-12-15T16:12:45.892Z,26.00
2022-12-15T16:15:18.524Z,24.20
2022-12-15T16:17:48.091Z,27.73
2022-12-15T16:20:17.017Z,24.43
2022-12-15T16:22:46.004Z,25.30
2022-12-15T16:25:18.146Z,22.33
2022-12-15T16:27:46.631Z,25.37
2022-12-15T16:30:22.769Z,24.07
2022-12-15T16:32:52.562Z,25.97
2022-12-15T16:35:21.098Z,27.63
2022-12-15T16:37:49.375Z,24.07
2022-12-15T16:40:19.107Z,25.87
2022-12-15T16:42:50.414Z,22.93
2022-12-15T16:45:19.533Z,24.00
2022-12-15T16:47:49.281Z,27.67
2022-12-15T16:50:22.656Z,28.33
2022-12-15T16:52:52.173Z,27.77
2022-12-15T16:55:21.594Z,27.37
2022-12-15T16:57:50.279Z,26.07
2022-12-15T17:00:20.155Z,29.50
2022-12-15T17:02:48.656Z,28.00
2022-12-15T17:05:17.302Z,25.13
2022-12-15T17:07:47.607Z,22.20
2022-12-15T17:10:19.902Z,25.07
2022-12-15T17:12:48.412Z,24.73
2022-12-15T17:15:20.527Z,27.30
2022-12-15T17:17:48.686Z,25.67
2022-12-15T17:20:29.083Z,21.17
2022-12-15T17:23:00.992Z,26.50
2022-12-15T17:26:09.449Z,21.93
2022-12-15T17:28:24.961Z,20.93
2022-12-15T17:30:53.327Z,23.33
2022-12-15T17:33:22.443Z,25.07
2022-12-15T17:35:51.669Z,22.00
2022-12-15T17:38:22.578Z,23.33
2022-12-15T17:40:52.057Z,23.83
2022-12-15T17:43:21.156Z,25.83
2022-12-15T17:45:50.703Z,27.10
2022-12-15T17:48:19.185Z,22.67
2022-12-15T17:50:49.896Z,22.17
2022-12-15T17:53:18.903Z,22.03
2022-12-15T17:55:49.602Z,21.53
2022-12-15T17:58:18.752Z,21.73
2022-12-15T18:00:49.222Z,23.47
2022-12-15T18:03:18.292Z,20.07
2022-12-15T18:05:48.615Z,26.20
2022-12-15T18:08:17.709Z,22.97
2022-12-15T18:10:46.607Z,26.37
2022-12-15T18:13:20.028Z,25.33
2022-12-15T18:15:48.508Z,21.97
2022-12-15T18:18:17.088Z,23.33
2022-12-15T18:20:45.542Z,20.30
2022-12-15T18:23:15.022Z,22.77
2022-12-15T18:25:43.990Z,21.17
2022-12-15T18:28:19.081Z,28.03
2022-12-15T18:30:48.797Z,25.37
2022-12-15T18:33:16.981Z,19.50
2022-12-15T18:35:46.695Z,23.27
2022-12-15T18:38:16.909Z,18.93
2022-12-15T18:40:45.542Z,21.43
2022-12-15T18:43:15.480Z,19.27
2022-12-15T18:45:43.987Z,20.50
2022-12-15T18:48:22.056Z,20.73
2022-12-15T18:50:52.453Z,21.10
2022-12-15T18:53:25.064Z,18.93
2022-12-15T18:55:53.583Z,20.00
2022-12-15T18:58:25.595Z,20.43
2022-12-15T19:00:54.134Z,19.13
2022-12-15T19:03:24.407Z,16.90
2022-12-15T19:05:55.439Z,21.27
2022-12-15T19:08:25.494Z,18.43
2022-12-15T19:10:58.153Z,19.60
2022-12-15T19:13:30.484Z,17.57
2022-12-15T19:15:59.244Z,16.80
2022-12-15T19:18:46.374Z,18.53
2022-12-15T19:21:45.374Z,15.20
2022-12-15T19:24:15.174Z,14.13
2022-12-15T19:26:43.360Z,11.07
2022-12-15T19:29:15.946Z,11.57
2022-12-15T19:31:44.238Z,13.47
2022-12-15T19:34:13.838Z,11.57
2022-12-15T19:36:42.101Z,11.77
2022-12-15T19:39:12.588Z,10.93
2022-12-15T19:41:40.938Z,12.53
2022-12-15T19:44:11.721Z,9.57
2022-12-15T19:46:42.568Z,9.90
2022-12-15T19:49:10.720Z,10.23
2022-12-15T19:51:41.781Z,10.83
2022-12-15T19:54:14.763Z,11.97
2022-12-15T19:56:45.749Z,9.30
2022-12-15T19:59:19.914Z,8.13
2022-12-15T20:01:48.243Z,8.50
2022-12-15T20:04:19.636Z,6.97
2022-12-15T20:06:51.905Z,11.50
2022-12-15T20:09:20.250Z,11.13
2022-12-15T20:11:48.407Z,10.00
2022-12-15T20:14:18.944Z,9.67
2022-12-15T20:16:47.688Z,9.70
2022-12-15T20:19:15.902Z,7.17
2022-12-15T20:21:44.183Z,8.27
2022-12-15T20:24:15.549Z,8.00
2022-12-15T20:26:44.653Z,8.70
2022-12-15T20:29:20.206Z,10.83
2022-12-15T20:31:48.468Z,7.83
2022-12-15T20:34:16.692Z,9.47
2022-12-15T20:36:45.021Z,9.17
2022-12-15T20:39:20.280Z,9.80
2022-12-15T20:41:48.977Z,11.03
2022-12-15T20:44:17.138Z,12.87
2022-12-15T20:46:45.338Z,8.13
2022-12-15T20:49:16.318Z,9.53
2022-12-15T20:51:44.595Z,8.33
2022-12-15T20:54:17.211Z,9.20
2022-12-15T20:56:45.698Z,9.38
2022-12-15T20:59:14.120Z,8.23
2022-12-15T21:01:43.105Z,8.33
2022-12-15T21:04:20.000Z,7.53
2022-12-15T21:06:52.939Z,12.20
2022-12-15T21:09:26.192Z,7.23
2022-12-15T21:11:55.247Z,6.37
2022-12-15T21:14:25.236Z,6.45
2022-12-15T21:16:53.503Z,8.03
2022-12-15T21:19:22.838Z,6.87
2022-12-15T21:21:52.953Z,8.00
2022-12-15T21:24:26.142Z,8.60
2022-12-15T21:26:54.784Z,6.60
2022-12-15T21:29:24.218Z,7.00
2022-12-15T21:31:52.443Z,7.17
2022-12-15T21:34:22.568Z,5.63
2022-12-15T21:36:55.290Z,7.60
2022-12-15T21:39:29.191Z,7.00
2022-12-15T21:41:57.836Z,8.97
2022-12-15T21:44:26.321Z,7.80
2022-12-15T21:46:54.770Z,7.57
2022-12-15T21:49:22.130Z,8.00
2022-12-15T21:51:53.057Z,7.90
2022-12-15T21:54:30.716Z,6.33
2022-12-15T21:56:59.747Z,6.73
2022-12-15T21:59:29.587Z,8.73
2022-12-15T22:01:57.947Z,8.18
2022-12-15T22:04:27.537Z,8.85
2022-12-15T22:06:55.765Z,5.65
2022-12-15T22:09:25.861Z,5.85
2022-12-15T22:11:55.682Z,8.15
2022-12-15T22:14:25.491Z,7.45
2022-12-15T22:16:53.966Z,8.35
2022-12-15T22:19:23.120Z,7.03
2022-12-15T22:21:52.057Z,6.88
2022-12-15T22:24:20.772Z,6.10
2022-12-15T22:26:50.433Z,5.95
2022-12-15T22:29:19.894Z,6.20
2022-12-15T22:31:48.348Z,4.22
2022-12-15T22:34:17.084Z,8.88
2022-12-15T22:36:45.341Z,6.20
2022-12-15T22:39:14.910Z,6.22
2022-12-15T22:41:44.149Z,5.90
2022-12-15T22:44:16.903Z,5.63
2022-12-15T22:46:45.176Z,4.40
2022-12-15T22:49:15.349Z,6.35
2022-12-15T22:51:43.506Z,4.88
2022-12-15T22:54:17.746Z,5.88
2022-12-15T22:56:46.262Z,5.00
2022-12-15T22:59:20.637Z,6.20
2022-12-15T23:01:48.819Z,4.28
2022-12-15T23:04:17.080Z,5.93
2022-12-15T23:06:45.874Z,5.50
2022-12-15T23:09:14.091Z,4.50
2022-12-15T23:11:41.878Z,4.78
2022-12-15T23:14:10.998Z,5.53
2022-12-15T23:16:39.911Z,6.85
2022-12-15T23:19:08.831Z,4.55
2022-12-15T23:21:37.862Z,3.67
2022-12-15T23:24:06.159Z,4.95
2022-12-15T23:26:34.307Z,3.55
2022-12-15T23:29:02.520Z,7.20
2022-12-15T23:31:30.719Z,4.78
2022-12-15T23:34:00.513Z,3.53
2022-12-15T23:36:28.690Z,6.07
2022-12-15T23:39:00.023Z,3.17
2022-12-15T23:41:29.278Z,3.50
2022-12-15T23:43:57.530Z,2.85
2022-12-15T23:46:25.905Z,2.63
2022-12-15T23:48:54.086Z,2.35
2022-12-15T23:51:24.862Z,2.85
2022-12-15T23:53:53.028Z,3.00
2022-12-15T23:56:24.086Z,3.13
2022-12-15T23:58:56.022Z,4.07
